Time;durP1;ratioP1;P1;durP2;ratioP2;P2;SDS_P1;SDS_P2;PMS_P1;PMS_P2;Temp;Humidity;BMP_temperature;BMP_pressure;BME280_temperature;BME280_humidity;BME280_pressure;Samples;Min_cycle;Max_cycle;Signal;HPM_P1;HPM_P2
2022/09/08 00:01:55;;;;;;;11.27;9.27;;;14.20;99.90;;;;;;4127842;28;20046;-63
2022/09/08 00:03:57;;;;;;;12.93;9.63;;;14.20;99.90;;;;;;4125240;28;20084;-61
2022/09/08 00:06:03;;;;;;;14.43;10.77;;;14.20;99.90;;;;;;4123970;28;20062;-64
2022/09/08 00:08:04;;;;;;;13.82;10.00;;;14.20;99.90;;;;;;4111491;28;20082;-63
2022/09/08 00:10:06;;;;;;;11.60;8.95;;;14.20;99.90;;;;;;4110612;28;20031;-63
2022/09/08 00:12:08;;;;;;;12.77;10.32;;;14.20;99.90;;;;;;4111535;28;20031;-63
2022/09/08 00:14:09;;;;;;;11.68;8.88;;;14.20;99.90;;;;;;4111480;28;20054;-64
2022/09/08 00:16:10;;;;;;;11.30;8.45;;;14.20;99.90;;;;;;4121910;28;20030;-63
2022/09/08 00:18:12;;;;;;;14.02;8.18;;;14.20;99.90;;;;;;4127645;28;20046;-63
2022/09/08 00:20:14;;;;;;;11.15;8.55;;;14.20;99.90;;;;;;4127667;28;20023;-63
2022/09/08 00:22:15;;;;;;;9.90;6.97;;;14.20;99.90;;;;;;4126374;28;20035;-64
2022/09/08 00:24:16;;;;;;;14.13;8.95;;;14.20;99.90;;;;;;4127820;28;20026;-62
2022/09/08 00:26:19;;;;;;;12.55;7.20;;;14.20;99.90;;;;;;4127196;28;20042;-63
2022/09/08 00:28:20;;;;;;;10.52;8.00;;;14.20;99.90;;;;;;4127669;28;20084;-63
2022/09/08 00:30:21;;;;;;;9.30;7.95;;;14.20;99.90;;;;;;4127407;28;20089;-63
2022/09/08 00:32:23;;;;;;;13.60;8.50;;;14.20;99.90;;;;;;4127635;28;20030;-63
2022/09/08 00:34:24;;;;;;;14.25;10.13;;;14.20;99.90;;;;;;4125810;28;20084;-63
2022/09/08 00:36:25;;;;;;;12.02;9.20;;;14.20;99.90;;;;;;4127665;28;20415;-63
2022/09/08 00:38:26;;;;;;;12.80;8.27;;;14.10;99.90;;;;;;4127708;28;20084;-62
2022/09/08 00:40:29;;;;;;;13.63;8.38;;;14.10;99.90;;;;;;4127603;28;20065;-63
2022/09/08 00:42:30;;;;;;;10.88;7.65;;;14.10;99.90;;;;;;4127490;28;20097;-62
2022/09/08 00:44:49;;;;;;;10.93;8.23;;;14.00;99.90;;;;;;4127265;28;20030;-63
2022/09/08 00:46:53;;;;;;;9.77;8.10;;;14.10;99.90;;;;;;4127111;28;20035;-63
2022/09/08 00:49:18;;;;;;;12.18;9.20;;;14.00;99.90;;;;;;4127493;28;20038;-63
2022/09/08 00:51:21;;;;;;;12.45;8.55;;;13.90;99.90;;;;;;4127431;28;20422;-62
2022/09/08 00:53:22;;;;;;;13.43;9.43;;;13.80;99.90;;;;;;4127454;28;20097;-62
2022/09/08 00:55:23;;;;;;;13.27;9.52;;;13.70;99.90;;;;;;4126103;28;20117;-62
2022/09/08 00:57:24;;;;;;;13.57;9.63;;;13.70;99.90;;;;;;4127549;28;20039;-63
2022/09/08 00:59:26;;;;;;;19.98;10.88;;;13.70;99.90;;;;;;4125966;28;20097;-62
2022/09/08 01:01:27;;;;;;;14.95;9.43;;;13.70;99.90;;;;;;4127272;28;20430;-62
2022/09/08 01:03:31;;;;;;;13.27;9.40;;;13.60;99.90;;;;;;4127372;28;20454;-63
2022/09/08 01:05:57;;;;;;;13.93;9.48;;;13.70;99.90;;;;;;4126314;28;20533;-63
2022/09/08 01:13:00;;;;;;;13.25;8.23;;;13.60;99.90;;;;;;4126414;28;20116;-63
2022/09/08 01:15:03;;;;;;;13.57;8.50;;;13.50;99.90;;;;;;4127126;28;20038;-63
2022/09/08 01:17:18;;;;;;;13.02;8.88;;;13.50;99.90;;;;;;4127155;28;20463;-62
2022/09/08 01:19:31;;;;;;;15.32;10.02;;;13.50;99.90;;;;;;4127049;28;20085;-63
2022/09/08 01:21:45;;;;;;;17.00;11.87;;;13.40;99.90;;;;;;4126193;28;20034;-64
2022/09/08 01:23:59;;;;;;;15.32;10.73;;;13.40;99.90;;;;;;4127132;28;20533;-63
2022/09/08 01:26:21;;;;;;;15.70;11.27;;;13.30;99.90;;;;;;4127172;28;20023;-64
2022/09/08 01:28:36;;;;;;;17.38;10.40;;;13.20;99.90;;;;;;4125494;28;20039;-63
2022/09/08 01:30:37;;;;;;;13.57;10.30;;;13.20;99.90;;;;;;4127187;28;20047;-64
2022/09/08 01:32:42;;;;;;;14.45;10.20;;;13.20;99.90;;;;;;4127313;28;20077;-64
2022/09/08 01:34:45;;;;;;;13.70;10.23;;;13.20;99.90;;;;;;4130262;28;20069;-63
2022/09/08 01:36:46;;;;;;;14.65;10.52;;;13.20;99.90;;;;;;4130169;28;20047;-64
2022/09/08 01:38:47;;;;;;;13.83;10.90;;;13.30;99.90;;;;;;4129928;28;20073;-65
2022/09/08 01:40:48;;;;;;;17.25;11.05;;;13.30;99.90;;;;;;4129263;28;20030;-63
2022/09/08 01:42:49;;;;;;;12.65;10.05;;;13.30;99.90;;;;;;4129851;28;20084;-62
2022/09/08 01:44:51;;;;;;;16.50;11.52;;;13.40;99.90;;;;;;4129734;28;20081;-62
2022/09/08 01:46:52;;;;;;;13.13;9.82;;;13.50;99.90;;;;;;4129744;28;20458;-63
2022/09/08 01:48:53;;;;;;;12.97;10.33;;;13.50;99.90;;;;;;4129888;28;20479;-62
2022/09/08 01:51:02;;;;;;;15.07;11.13;;;13.60;99.90;;;;;;4129955;28;20081;-62
2022/09/08 01:53:03;;;;;;;14.80;11.30;;;13.60;99.90;;;;;;4129527;28;20217;-63
2022/09/08 01:55:04;;;;;;;15.60;11.85;;;13.60;99.90;;;;;;4129602;28;20482;-64
2022/09/08 01:57:05;;;;;;;13.25;10.90;;;13.60;99.90;;;;;;4129117;28;20022;-62
2022/09/08 01:59:06;;;;;;;14.23;11.43;;;13.60;99.90;;;;;;4128724;28;20487;-63
2022/09/08 02:01:08;;;;;;;15.40;11.15;;;13.60;99.90;;;;;;4129217;28;20467;-62
2022/09/08 02:03:10;;;;;;;16.95;11.75;;;13.60;99.90;;;;;;4129795;28;20141;-63
2022/09/08 02:05:12;;;;;;;14.82;10.73;;;13.60;99.90;;;;;;4129784;28;20112;-63
2022/09/08 02:07:13;;;;;;;15.55;11.98;;;13.50;99.90;;;;;;4128475;28;20751;-61
2022/09/08 02:09:14;;;;;;;20.30;12.50;;;13.60;99.90;;;;;;4128260;28;20038;-62
2022/09/08 02:11:16;;;;;;;16.95;11.73;;;13.60;99.90;;;;;;4126430;28;20118;-62
2022/09/08 02:13:17;;;;;;;16.65;12.45;;;13.60;99.90;;;;;;4128505;28;20034;-62
2022/09/08 02:15:18;;;;;;;17.02;12.55;;;13.70;99.90;;;;;;4129328;28;20046;-61
2022/09/08 02:17:19;;;;;;;14.30;12.20;;;13.70;99.90;;;;;;4128595;28;20088;-62
2022/09/08 02:19:20;;;;;;;19.08;11.88;;;13.70;99.90;;;;;;4129270;28;20097;-63
2022/09/08 02:21:24;;;;;;;15.48;10.98;;;13.70;99.90;;;;;;4128257;28;20081;-64
2022/09/08 02:23:25;;;;;;;17.23;12.07;;;13.80;99.90;;;;;;4129060;28;20451;-63
2022/09/08 02:25:26;;;;;;;19.50;12.02;;;13.80;99.90;;;;;;4129348;28;20034;-63
2022/09/08 02:27:27;;;;;;;15.45;12.27;;;13.90;99.90;;;;;;4128686;28;20026;-60
2022/09/08 02:29:28;;;;;;;15.23;12.00;;;13.90;99.90;;;;;;4129209;28;20442;-64
2022/09/08 02:31:29;;;;;;;16.73;10.68;;;13.90;99.90;;;;;;4128724;28;20039;-63
2022/09/08 02:33:31;;;;;;;18.65;11.18;;;13.90;99.90;;;;;;4129536;28;20039;-63
2022/09/08 02:35:32;;;;;;;18.00;12.32;;;13.90;99.90;;;;;;4129464;28;20653;-62
2022/09/08 02:37:33;;;;;;;15.90;12.32;;;13.90;99.90;;;;;;4128365;28;20073;-62
2022/09/08 02:39:34;;;;;;;20.73;12.07;;;13.90;99.90;;;;;;4128976;28;20434;-62
2022/09/08 02:41:35;;;;;;;18.40;13.32;;;13.80;99.90;;;;;;4128937;28;20026;-61
2022/09/08 02:43:36;;;;;;;23.85;13.15;;;13.80;99.90;;;;;;4127473;28;20498;-64
2022/09/08 02:45:39;;;;;;;19.10;12.95;;;13.80;99.90;;;;;;4127790;28;20087;-62
2022/09/08 02:47:40;;;;;;;19.25;12.70;;;13.80;99.90;;;;;;4128823;28;20076;-62
2022/09/08 02:49:41;;;;;;;35.05;14.40;;;13.90;99.90;;;;;;4128758;28;20520;-62
2022/09/08 02:51:43;;;;;;;21.92;13.93;;;13.90;99.90;;;;;;4128991;28;20084;-63
2022/09/08 02:53:44;;;;;;;24.85;12.98;;;13.90;99.90;;;;;;4128674;28;20434;-62
2022/09/08 02:55:45;;;;;;;18.05;12.50;;;13.90;99.90;;;;;;4129012;28;20419;-63
2022/09/08 02:57:46;;;;;;;22.42;14.55;;;13.90;99.90;;;;;;4127079;28;20110;-61
2022/09/08 02:59:47;;;;;;;20.92;13.63;;;14.00;99.90;;;;;;4127262;28;20046;-62
2022/09/08 03:01:49;;;;;;;18.58;12.60;;;14.00;99.90;;;;;;4128282;28;20383;-62
2022/09/08 03:03:50;;;;;;;20.02;12.80;;;14.00;99.90;;;;;;4128191;28;20166;-63
2022/09/08 03:05:52;;;;;;;20.65;13.48;;;14.00;99.90;;;;;;4118224;28;20426;-64
2022/09/08 03:07:53;;;;;;;19.88;13.02;;;14.00;99.90;;;;;;4127752;28;20067;-63
2022/09/08 03:09:54;;;;;;;20.92;13.43;;;14.10;99.90;;;;;;4128663;28;20042;-61
2022/09/08 03:11:55;;;;;;;16.92;11.18;;;14.10;99.90;;;;;;4126759;28;20113;-61
2022/09/08 03:13:56;;;;;;;23.13;13.50;;;14.10;99.90;;;;;;4126424;28;21096;-61
2022/09/08 03:15:57;;;;;;;19.63;12.55;;;14.20;99.90;;;;;;4130019;28;20042;-62
2022/09/08 03:17:59;;;;;;;13.63;10.45;;;14.10;99.90;;;;;;4127450;28;20096;-62
2022/09/08 03:20:00;;;;;;;16.30;12.25;;;14.20;99.90;;;;;;4128133;28;20030;-62
2022/09/08 03:22:02;;;;;;;19.38;11.88;;;14.20;99.90;;;;;;4128290;28;20121;-62
2022/09/08 03:24:03;;;;;;;306.23;17.00;;;14.20;99.90;;;;;;4127801;28;20046;-62
2022/09/08 03:26:09;;;;;;;108.07;13.98;;;14.10;99.90;;;;;;4128015;28;20898;-62
2022/09/08 03:28:18;;;;;;;198.60;15.63;;;14.00;99.90;;;;;;4128055;28;20561;-62
2022/09/08 03:30:19;;;;;;;48.22;12.82;;;14.00;99.90;;;;;;4128299;28;20038;-64
2022/09/08 03:32:21;;;;;;;84.30;13.60;;;13.90;99.90;;;;;;4127990;28;20050;-62
2022/09/08 03:34:22;;;;;;;79.15;12.93;;;13.90;99.90;;;;;;4128067;28;20042;-61
2022/09/08 03:36:23;;;;;;;38.95;11.52;;;13.80;99.90;;;;;;4128222;28;20491;-62
2022/09/08 03:38:24;;;;;;;79.10;12.13;;;13.80;99.90;;;;;;4128091;28;20030;-62
2022/09/08 03:40:25;;;;;;;143.65;13.82;;;13.70;99.90;;;;;;4126328;28;20438;-63
2022/09/08 03:42:26;;;;;;;50.00;12.10;;;13.70;99.90;;;;;;4132532;28;20041;-62
2022/09/08 03:44:27;;;;;;;109.93;14.15;;;13.70;99.90;;;;;;4128317;28;20499;-62
2022/09/08 03:46:29;;;;;;;279.52;16.92;;;13.70;99.90;;;;;;4131864;28;20893;-62
2022/09/08 03:48:30;;;;;;;132.57;14.13;;;13.70;99.90;;;;;;4143952;28;20030;-64
2022/09/08 03:50:32;;;;;;;119.55;14.50;;;13.70;99.90;;;;;;4143408;28;20438;-62
2022/09/08 03:52:33;;;;;;;86.55;13.43;;;13.70;99.90;;;;;;4129449;28;20038;-62
2022/09/08 03:54:50;;;;;;;56.72;12.15;;;13.70;99.90;;;;;;4127768;28;20108;-65
2022/09/08 03:56:52;;;;;;;88.72;13.13;;;13.70;99.90;;;;;;4126547;28;20168;-63
2022/09/08 03:58:53;;;;;;;48.53;12.73;;;13.70;99.90;;;;;;4126490;28;20580;-68
2022/09/08 04:00:54;;;;;;;148.30;16.48;;;13.70;99.90;;;;;;4127781;28;20030;-62
2022/09/08 04:02:55;;;;;;;80.57;13.55;;;13.70;99.90;;;;;;4126386;28;20081;-63
2022/09/08 04:04:57;;;;;;;59.50;11.57;;;13.80;99.90;;;;;;4127326;28;20680;-63
2022/09/08 04:06:58;;;;;;;70.38;12.25;;;13.70;99.90;;;;;;4111248;28;20031;-64
2022/09/08 04:09:00;;;;;;;109.82;12.27;;;13.60;99.90;;;;;;4125757;28;20038;-63
2022/09/08 04:11:01;;;;;;;81.25;12.95;;;13.60;99.90;;;;;;4127072;28;20026;-61
2022/09/08 04:13:02;;;;;;;51.90;11.45;;;13.60;99.90;;;;;;4127462;28;20545;-61
2022/09/08 04:15:05;;;;;;;54.75;11.85;;;13.50;99.90;;;;;;4125129;28;20046;-63
2022/09/08 04:17:06;;;;;;;53.05;12.60;;;13.50;99.90;;;;;;4124374;28;20026;-62
2022/09/08 04:19:09;;;;;;;33.88;12.25;;;13.50;99.90;;;;;;4126157;28;20325;-63
2022/09/08 04:21:11;;;;;;;53.65;13.55;;;13.50;99.90;;;;;;4125879;28;20109;-66
2022/09/08 04:23:12;;;;;;;38.40;13.07;;;13.50;99.90;;;;;;4127142;28;20085;-63
2022/09/08 04:25:13;;;;;;;209.40;18.90;;;13.50;99.90;;;;;;4127217;28;20564;-63
2022/09/08 04:27:16;;;;;;;249.68;20.02;;;13.50;99.90;;;;;;4126955;28;20081;-63
2022/09/08 04:29:17;;;;;;;117.13;15.27;;;13.40;99.90;;;;;;4125643;28;20034;-63
2022/09/08 04:31:19;;;;;;;157.33;16.87;;;13.40;99.90;;;;;;4123581;28;20026;-63
2022/09/08 04:33:20;;;;;;;73.10;13.73;;;13.40;99.90;;;;;;4118844;28;21141;-62
2022/09/08 04:35:21;;;;;;;86.20;13.48;;;13.40;99.90;;;;;;4124986;28;20078;-65
2022/09/08 04:37:22;;;;;;;33.38;13.10;;;13.40;99.90;;;;;;4125106;28;20557;-64
2022/09/08 04:39:23;;;;;;;82.37;15.57;;;13.30;99.90;;;;;;4123261;28;20097;-62
2022/09/08 04:41:26;;;;;;;39.87;15.07;;;13.40;99.90;;;;;;4123767;28;20038;-64
2022/09/08 04:43:28;;;;;;;27.63;14.60;;;13.40;99.90;;;;;;4127136;28;20106;-62
2022/09/08 04:45:29;;;;;;;20.77;13.65;;;13.50;99.90;;;;;;4126871;28;20035;-63
2022/09/08 04:47:30;;;;;;;37.80;14.40;;;13.50;99.90;;;;;;4126806;28;20077;-64
2022/09/08 04:49:31;;;;;;;29.77;14.40;;;13.60;99.90;;;;;;4126697;28;20043;-63
2022/09/08 04:51:32;;;;;;;25.40;13.38;;;13.60;99.90;;;;;;4124923;28;20039;-63
2022/09/08 04:53:38;;;;;;;22.98;13.90;;;13.60;99.90;;;;;;4126617;28;20063;-64
2022/09/08 04:55:39;;;;;;;22.33;14.07;;;13.70;99.90;;;;;;4126588;28;20051;-63
2022/09/08 04:57:40;;;;;;;87.97;12.25;;;13.80;99.90;;;;;;4125520;28;20049;-62
2022/09/08 04:59:41;;;;;;;49.55;12.55;;;13.80;99.90;;;;;;4122907;28;20108;-64
2022/09/08 05:01:42;;;;;;;78.57;14.15;;;13.70;99.90;;;;;;4125690;28;20097;-63
2022/09/08 05:03:43;;;;;;;155.05;15.60;;;13.70;99.90;;;;;;4127189;28;20085;-64
2022/09/08 05:05:44;;;;;;;61.30;12.07;;;13.60;99.90;;;;;;4127025;28;20077;-63
2022/09/08 05:07:49;;;;;;;54.67;11.57;;;13.60;99.90;;;;;;4126032;28;20089;-64
2022/09/08 05:09:50;;;;;;;109.90;13.10;;;13.60;99.90;;;;;;4130381;28;20479;-67
2022/09/08 05:11:51;;;;;;;70.10;12.75;;;13.60;99.90;;;;;;4129670;28;20038;-64
2022/09/08 05:13:53;;;;;;;131.00;14.23;;;13.60;99.90;;;;;;4130366;28;20035;-64
2022/09/08 05:16:04;;;;;;;55.60;12.60;;;13.60;99.90;;;;;;4129568;28;20629;-67
2022/09/08 05:18:05;;;;;;;32.45;12.65;;;13.60;99.90;;;;;;4130062;28;20077;-64
2022/09/08 05:20:07;;;;;;;45.13;12.77;;;13.60;99.90;;;;;;4129571;28;20039;-63
2022/09/08 05:22:08;;;;;;;88.60;13.82;;;13.60;99.90;;;;;;4129931;28;20483;-63
2022/09/08 05:24:09;;;;;;;85.88;13.32;;;13.70;99.90;;;;;;4129934;28;20093;-65
2022/09/08 05:26:13;;;;;;;25.17;12.20;;;13.70;99.90;;;;;;4129879;28;20108;-67
2022/09/08 05:28:14;;;;;;;30.08;12.45;;;13.60;99.90;;;;;;4129514;28;20089;-64
2022/09/08 05:30:16;;;;;;;22.30;12.27;;;13.70;99.90;;;;;;4128383;28;20345;-67
2022/09/08 05:32:17;;;;;;;29.60;15.40;;;13.80;99.90;;;;;;4129690;28;20026;-65
2022/09/08 05:34:18;;;;;;;64.93;14.88;;;13.90;99.90;;;;;;4128703;28;20042;-67
2022/09/08 05:36:22;;;;;;;27.33;13.02;;;13.90;99.90;;;;;;4128053;28;20093;-67
2022/09/08 05:38:23;;;;;;;166.35;15.80;;;14.00;99.90;;;;;;4129408;28;20837;-64
2022/09/08 05:40:24;;;;;;;38.33;12.30;;;14.00;99.90;;;;;;4129499;28;20023;-67
2022/09/08 05:42:25;;;;;;;23.33;11.82;;;14.00;99.90;;;;;;4129179;28;20030;-67
2022/09/08 05:44:26;;;;;;;43.05;12.32;;;14.00;99.90;;;;;;4129347;28;20077;-67
2022/09/08 05:46:28;;;;;;;38.35;13.88;;;13.90;99.90;;;;;;4128773;28;20047;-66
2022/09/08 05:48:30;;;;;;;31.15;12.48;;;14.00;99.90;;;;;;4129488;28;20088;-65
2022/09/08 05:50:34;;;;;;;76.65;13.68;;;13.90;99.90;;;;;;4129387;28;20487;-62
2022/09/08 05:52:35;;;;;;;25.15;12.13;;;14.00;99.90;;;;;;4129438;28;20026;-66
2022/09/08 05:54:37;;;;;;;32.85;12.93;;;13.90;99.90;;;;;;4129235;28;20092;-65
2022/09/08 05:56:38;;;;;;;36.35;13.20;;;14.00;99.90;;;;;;4129128;28;20104;-67
2022/09/08 05:58:39;;;;;;;31.25;14.00;;;14.00;99.90;;;;;;4128824;28;20030;-67
2022/09/08 06:00:41;;;;;;;23.17;14.20;;;14.00;99.90;;;;;;4127737;28;20138;-66
2022/09/08 06:02:42;;;;;;;25.45;15.00;;;14.00;99.90;;;;;;4128897;28;20499;-65
2022/09/08 06:04:43;;;;;;;23.13;14.75;;;14.00;99.90;;;;;;4129706;28;20483;-67
2022/09/08 06:06:44;;;;;;;29.42;16.50;;;14.00;99.90;;;;;;4129294;28;20030;-65
2022/09/08 06:08:45;;;;;;;23.83;15.48;;;14.00;99.90;;;;;;4128887;28;20034;-68
2022/09/08 06:10:51;;;;;;;26.83;16.98;;;13.90;99.90;;;;;;4128916;28;20042;-63
2022/09/08 06:12:54;;;;;;;21.80;14.50;;;14.00;99.90;;;;;;4128145;28;20093;-66
2022/09/08 06:14:55;;;;;;;30.05;19.13;;;14.00;99.90;;;;;;4129067;28;20026;-63
2022/09/08 06:16:56;;;;;;;34.35;18.75;;;14.00;99.90;;;;;;4128699;28;20483;-64
2022/09/08 06:18:59;;;;;;;20.65;15.15;;;14.00;99.90;;;;;;4129307;28;20088;-67
2022/09/08 06:21:08;;;;;;;34.80;16.05;;;14.00;99.90;;;;;;4127441;28;20034;-63
2022/09/08 06:23:10;;;;;;;27.70;15.60;;;13.90;99.90;;;;;;4127768;28;20039;-65
2022/09/08 06:25:11;;;;;;;25.83;16.20;;;13.90;99.90;;;;;;4128936;28;20038;-64
2022/09/08 06:27:30;;;;;;;28.67;19.30;;;13.90;99.90;;;;;;4127451;28;20076;-64
2022/09/08 06:30:04;;;;;;;41.13;18.67;;;14.00;99.90;;;;;;4128516;28;20483;-64
2022/09/08 06:32:20;;;;;;;37.65;16.77;;;14.00;99.90;;;;;;4128704;28;20026;-67
2022/09/08 06:34:26;;;;;;;24.85;17.90;;;14.10;99.90;;;;;;4128782;28;20038;-66
2022/09/08 06:36:45;;;;;;;29.35;18.95;;;14.20;99.90;;;;;;4129065;28;20431;-66
2022/09/08 06:38:57;;;;;;;27.23;17.88;;;14.30;99.90;;;;;;4128360;28;20022;-63
2022/09/08 06:41:10;;;;;;;27.42;16.95;;;14.40;99.90;;;;;;4127267;28;20092;-63
2022/09/08 06:43:27;;;;;;;22.75;15.85;;;14.40;99.90;;;;;;4128353;28;20434;-64
2022/09/08 06:45:51;;;;;;;27.48;16.17;;;14.60;99.90;;;;;;4128222;28;20447;-65
2022/09/08 06:48:08;;;;;;;25.33;15.90;;;14.70;99.90;;;;;;4128497;28;20040;-66
2022/09/08 06:50:14;;;;;;;27.17;16.55;;;14.60;99.90;;;;;;4127447;28;20070;-66
2022/09/08 06:52:32;;;;;;;25.67;14.82;;;14.70;99.90;;;;;;4128466;28;20034;-65
2022/09/08 06:54:51;;;;;;;23.75;14.77;;;14.80;99.90;;;;;;4128539;28;20421;-66
2022/09/08 06:56:57;;;;;;;27.50;16.75;;;14.90;99.90;;;;;;4128443;28;20120;-66
2022/09/08 06:59:17;;;;;;;30.80;15.73;;;15.00;99.90;;;;;;4128223;28;20035;-64
2022/09/08 07:01:26;;;;;;;27.73;16.67;;;15.20;99.90;;;;;;4127259;28;20137;-67
2022/09/08 07:03:35;;;;;;;22.77;14.80;;;15.40;99.90;;;;;;4128585;28;20038;-66
2022/09/08 07:05:47;;;;;;;24.20;15.15;;;15.50;99.90;;;;;;4128735;28;20090;-67
2022/09/08 07:08:13;;;;;;;21.48;14.85;;;15.70;99.90;;;;;;4126986;28;20443;-66
2022/09/08 07:10:28;;;;;;;26.33;15.23;;;15.70;99.90;;;;;;4128244;28;20043;-66
2022/09/08 07:12:45;;;;;;;20.20;13.15;;;15.90;99.90;;;;;;4127881;28;20092;-66
2022/09/08 07:14:49;;;;;;;18.25;12.40;;;16.00;99.90;;;;;;4128156;28;20085;-67
2022/09/08 07:16:58;;;;;;;21.23;13.13;;;16.10;99.90;;;;;;4127995;28;20100;-67
2022/09/08 07:19:20;;;;;;;16.67;12.02;;;16.10;99.90;;;;;;4128037;28;20042;-67
2022/09/08 07:21:27;;;;;;;19.40;13.15;;;16.10;99.90;;;;;;4127777;28;20022;-64
2022/09/08 07:23:36;;;;;;;20.15;14.02;;;16.20;99.90;;;;;;4128269;28;20039;-66
2022/09/08 07:25:53;;;;;;;16.35;12.20;;;16.30;99.90;;;;;;4127657;28;20439;-66
2022/09/08 07:28:19;;;;;;;18.10;11.93;;;16.40;99.90;;;;;;4127957;28;20030;-64
2022/09/08 07:30:21;;;;;;;15.23;12.02;;;16.50;99.90;;;;;;4127479;28;20427;-64
2022/09/08 07:32:31;;;;;;;17.45;11.73;;;16.60;99.90;;;;;;4127591;28;20360;-66
2022/09/08 07:34:37;;;;;;;;;;;16.80;99.90;;;;;;4128212;28;20046;-63
2022/09/08 07:37:05;;;;;;;15.30;10.40;;;16.90;99.90;;;;;;4128123;28;19964;-63
2022/09/08 07:39:30;;;;;;;13.23;10.70;;;16.90;99.90;;;;;;4127326;28;20042;-68
2022/09/08 07:41:48;;;;;;;15.88;11.25;;;16.80;99.90;;;;;;4127958;28;20042;-64
2022/09/08 07:43:56;;;;;;;12.48;9.88;;;16.80;99.90;;;;;;4127236;28;20026;-62
2022/09/08 07:46:12;;;;;;;15.30;10.15;;;16.80;99.90;;;;;;4127777;28;20038;-66
2022/09/08 07:48:31;;;;;;;18.38;14.18;;;16.80;99.90;;;;;;4127568;28;20022;-66
2022/09/08 07:50:55;;;;;;;19.02;12.60;;;17.00;99.90;;;;;;4127676;28;20093;-65
2022/09/08 07:53:25;;;;;;;16.13;10.90;;;17.20;99.90;;;;;;4126261;28;20046;-63
2022/09/08 07:55:33;;;;;;;14.48;11.20;;;17.50;99.90;;;;;;4127288;28;20427;-63
2022/09/08 07:58:04;;;;;;;12.88;10.65;;;17.70;99.90;;;;;;4127252;28;20093;-68
2022/09/08 08:00:50;;;;;;;11.38;9.70;;;17.80;99.90;;;;;;4126985;28;20451;-68
2022/09/08 08:03:13;;;;;;;14.13;10.43;;;17.90;99.90;;;;;;4117460;28;20046;-65
2022/09/08 08:05:33;;;;;;;16.08;9.95;;;17.80;99.90;;;;;;4127256;28;20026;-67
2022/09/08 08:07:50;;;;;;;14.07;9.35;;;17.90;99.90;;;;;;4127664;28;20042;-66
2022/09/08 08:10:18;;;;;;;15.10;9.32;;;18.10;99.90;;;;;;4125854;28;20073;-68
2022/09/08 08:12:41;;;;;;;11.57;8.27;;;18.00;99.90;;;;;;4127415;28;20466;-67
2022/09/08 08:14:46;;;;;;;11.85;8.75;;;18.00;99.90;;;;;;4127192;28;20088;-67
2022/09/08 08:16:58;;;;;;;16.08;9.55;;;17.90;99.90;;;;;;4127307;28;20671;-68
2022/09/08 08:19:29;;;;;;;14.48;9.63;;;17.90;99.90;;;;;;4127173;28;20023;-64
2022/09/08 08:21:38;;;;;;;13.10;9.32;;;18.00;99.90;;;;;;4126019;28;20118;-68
2022/09/08 08:24:06;;;;;;;14.55;9.38;;;18.10;99.90;;;;;;4127021;28;20096;-66
2022/09/08 08:26:20;;;;;;;9.75;8.68;;;18.20;99.90;;;;;;4126861;28;20046;-64
2022/09/08 08:28:22;;;;;;;12.38;8.95;;;18.20;99.90;;;;;;4127012;28;20026;-66
2022/09/08 08:30:24;;;;;;;10.48;8.85;;;18.30;99.90;;;;;;4126999;28;20030;-63
2022/09/08 08:32:36;;;;;;;13.90;9.32;;;18.20;99.90;;;;;;4127036;28;20027;-63
2022/09/08 08:34:49;;;;;;;12.20;8.85;;;18.20;99.90;;;;;;4126839;28;20414;-62
2022/09/08 08:36:51;;;;;;;11.80;9.23;;;18.10;99.90;;;;;;4126287;28;20487;-63
2022/09/08 08:39:16;;;;;;;11.10;8.88;;;18.20;99.90;;;;;;4125613;28;20046;-64
2022/09/08 08:41:35;;;;;;;11.95;9.13;;;18.20;99.90;;;;;;4127319;28;20046;-63
2022/09/08 08:43:51;;;;;;;13.73;9.52;;;18.40;99.90;;;;;;4128003;28;20042;-65
2022/09/08 08:46:04;;;;;;;10.85;8.93;;;18.40;99.90;;;;;;4130065;28;20050;-63
2022/09/08 08:48:28;;;;;;;11.10;8.95;;;18.50;99.90;;;;;;4128570;28;20047;-64
2022/09/08 08:51:10;;;;;;;11.50;9.32;;;18.70;99.90;;;;;;4130309;28;20081;-63
2022/09/08 08:53:14;;;;;;;14.60;9.40;;;18.60;99.90;;;;;;4130227;28;20030;-63
2022/09/08 08:55:18;;;;;;;13.23;9.80;;;18.60;99.90;;;;;;4130061;28;20479;-64
2022/09/08 08:57:51;;;;;;;13.73;9.80;;;18.70;99.90;;;;;;4129795;28;20089;-64
2022/09/08 09:00:17;;;;;;;11.18;9.15;;;19.00;99.90;;;;;;4125781;28;20046;-63
2022/09/08 09:02:24;;;;;;;15.57;9.07;;;19.20;99.90;;;;;;4130515;28;20138;-63
2022/09/08 09:04:59;;;;;;;13.35;8.63;;;19.20;99.90;;;;;;4130208;28;20030;-63
2022/09/08 09:07:28;;;;;;;10.93;9.20;;;19.50;99.90;;;;;;4130432;28;20061;-63
2022/09/08 09:09:43;;;;;;;12.75;10.02;;;19.50;99.90;;;;;;4129661;28;20549;-63
2022/09/08 09:11:56;;;;;;;15.43;8.93;;;19.60;99.90;;;;;;4130001;28;20042;-64
2022/09/08 09:14:18;;;;;;;15.50;9.70;;;19.80;99.90;;;;;;4129363;28;20089;-64
2022/09/08 09:16:32;;;;;;;14.82;8.45;;;20.00;99.90;;;;;;4129873;28;20034;-63
2022/09/08 09:18:39;;;;;;;10.30;8.57;;;20.00;99.90;;;;;;4129552;28;20093;-63
2022/09/08 09:20:57;;;;;;;13.40;9.02;;;20.00;99.90;;;;;;4129927;28;20471;-64
2022/09/08 09:23:05;;;;;;;9.80;8.32;;;20.10;99.90;;;;;;4129288;28;20438;-63
2022/09/08 09:25:33;;;;;;;9.43;6.30;;;20.20;99.90;;;;;;4129701;28;20042;-63
2022/09/08 09:28:29;;;;;;;9.73;8.05;;;20.30;99.90;;;;;;4129351;28;20422;-65
2022/09/08 09:30:42;;;;;;;8.40;7.05;;;20.40;99.90;;;;;;4105947;28;20105;-62
2022/09/08 09:33:27;;;;;;;11.57;7.90;;;20.40;99.90;;;;;;4129349;28;20109;-62
2022/09/08 09:35:43;;;;;;;11.10;8.52;;;20.40;99.90;;;;;;4096626;28;20287;-63
2022/09/08 09:38:01;;;;;;;11.20;7.97;;;20.40;99.90;;;;;;4129908;28;20741;-63
2022/09/08 09:40:14;;;;;;;8.95;6.63;;;20.40;99.90;;;;;;4129007;28;20042;-64
2022/09/08 09:42:21;;;;;;;10.38;7.15;;;20.40;99.90;;;;;;4129317;28;20039;-64
2022/09/08 09:44:34;;;;;;;9.90;7.00;;;20.40;99.90;;;;;;4128689;28;20022;-64
2022/09/08 09:47:03;;;;;;;10.07;6.53;;;20.50;99.90;;;;;;4128569;28;20105;-64
2022/09/08 09:49:22;;;;;;;13.38;7.15;;;20.50;99.90;;;;;;4126952;28;20042;-64
2022/09/08 09:51:39;;;;;;;8.10;7.10;;;20.70;99.90;;;;;;4128454;28;20026;-68
2022/09/08 09:53:43;;;;;;;9.60;7.03;;;20.90;99.90;;;;;;4127916;28;20027;-67
2022/09/08 09:56:01;;;;;;;8.88;6.47;;;21.00;99.90;;;;;;4128555;28;20034;-65
2022/09/08 09:58:33;;;;;;;8.57;6.18;;;21.20;99.90;;;;;;4128131;28;20081;-68
2022/09/08 10:01:16;;;;;;;9.63;6.50;;;21.20;99.90;;;;;;4128370;28;20034;-64
2022/09/08 10:03:38;;;;;;;19.25;7.55;;;21.20;99.90;;;;;;4120881;28;20097;-64
2022/09/08 10:06:20;;;;;;;8.18;6.03;;;21.30;99.90;;;;;;4128072;28;20614;-64
2022/09/08 10:08:37;;;;;;;8.55;6.13;;;21.40;99.90;;;;;;4128908;28;20019;-64
2022/09/08 10:11:00;;;;;;;11.13;6.63;;;21.30;99.90;;;;;;4127729;28;20443;-65
2022/09/08 10:13:07;;;;;;;5.80;5.10;;;21.50;99.90;;;;;;4128087;28;20092;-63
2022/09/08 10:15:08;;;;;;;6.40;5.78;;;21.60;99.90;;;;;;4127760;28;20100;-65
2022/09/08 10:17:34;;;;;;;7.20;6.03;;;21.60;99.90;;;;;;4128337;28;20783;-65
2022/09/08 10:20:17;;;;;;;6.18;5.22;;;21.60;99.90;;;;;;4127856;28;20042;-64
2022/09/08 10:22:33;;;;;;;6.72;5.88;;;21.80;99.90;;;;;;4127684;28;20483;-63
2022/09/08 10:25:04;;;;;;;6.75;5.60;;;21.90;99.90;;;;;;4126637;28;20156;-64
2022/09/08 10:27:39;;;;;;;11.30;5.85;;;22.00;99.90;;;;;;4127754;28;20026;-63
2022/09/08 10:29:59;;;;;;;6.68;5.63;;;22.10;99.90;;;;;;4126448;28;20042;-63
2022/09/08 10:32:21;;;;;;;10.02;5.88;;;22.10;99.90;;;;;;4127445;28;20030;-63
2022/09/08 10:34:28;;;;;;;9.38;5.93;;;22.20;99.90;;;;;;4128105;28;20487;-64
2022/09/08 10:36:50;;;;;;;7.82;6.13;;;22.30;99.90;;;;;;4127706;28;20038;-63
2022/09/08 10:39:27;;;;;;;6.63;5.47;;;22.40;99.90;;;;;;4128263;28;20081;-64
2022/09/08 10:42:06;;;;;;;6.95;5.55;;;22.40;99.90;;;;;;4123496;28;20050;-64
2022/09/08 10:44:28;;;;;;;6.57;5.85;;;22.50;99.90;;;;;;4127650;28;20038;-63
2022/09/08 10:47:01;;;;;;;7.15;6.18;;;22.50;99.90;;;;;;4083866;28;1251691;-64
2022/09/08 10:49:30;;;;;;;7.68;6.40;;;22.70;99.90;;;;;;4128221;28;20045;-63
2022/09/08 10:51:40;;;;;;;7.22;5.90;;;22.70;99.90;;;;;;4128693;28;20035;-65
2022/09/08 10:54:09;;;;;;;8.68;6.30;;;22.90;99.90;;;;;;4127990;28;20384;-64
2022/09/08 10:56:26;;;;;;;7.82;4.88;;;23.20;99.90;;;;;;4128305;28;20077;-63
2022/09/08 10:58:33;;;;;;;10.40;5.57;;;23.40;99.90;;;;;;4127851;28;20065;-63
2022/09/08 11:00:43;;;;;;;6.00;5.28;;;23.50;99.90;;;;;;4128547;28;20038;-64
2022/09/08 11:03:11;;;;;;;6.70;5.18;;;23.40;99.90;;;;;;4128137;28;20084;-64